Flag for United Kingdom

Past Weather in Weston-Super-Mare, England, United Kingdom — Yesterday and Last 2 Weeks

Currently: 41 °F. Quite cool. (Weather station: Bristol / Lulsgate, United Kingdom). See more current weather

Past Weather in Weston-Super-Mare — Graph

°F

Weston-Super-Mare Temperature Yesterday

Maximum temperature yesterday: 54 °F (at 3:20 pm)
Minimum temperature yesterday: 28 °F (at 5:20 am)
Average temperature yesterday: 43 °F

High & Low Weather Summary for the Past Weeks

 TemperatureHumidityPressure
High54 °F (Apr 9, 1:50 pm)100% (Apr 4, 10:50 pm)30.54 "Hg (Apr 4, 10:50 pm)
Low28 °F (Apr 17, 5:20 am)31% (Apr 5, 5:50 pm)29.89 "Hg (Apr 9, 1:20 pm)
Average41 °F71%30.27 "Hg
* Reported Apr 3 12:20 am — Apr 18 12:50 am, Weston-Super-Mare. Weather by CustomWeather, © 2021

Note: Actual official high and low records may vary slightly from our data, if they occured in-between our weather recording intervals... More about our weather records

Weston-Super-Mare Weather History for the Previous 24 Hours

Scroll right to see more
 ConditionsComfort  
Time TempWeatherWind HumidityBarometerVisibility
12:50 am
Sun, Apr 18
41 °FQuite cool.2 mph70%30.30 "HgN/A
12:20 am43 °FQuite cool.5 mph61%30.30 "HgN/A
11:50 pm
Sat, Apr 17
43 °FQuite cool.5 mph61%30.30 "HgN/A
11:20 pm43 °FQuite cool.5 mph66%30.30 "HgN/A
10:50 pm45 °FQuite cool.5 mph57%30.30 "HgN/A
10:20 pm45 °FQuite cool.5 mph53%30.33 "HgN/A
9:50 pm43 °FQuite cool.6 mph57%30.33 "HgN/A
9:20 pm45 °FQuite cool.3 mph53%30.33 "HgN/A
8:50 pm45 °FQuite cool.5 mph53%30.30 "HgN/A
8:20 pm45 °FQuite cool.7 mph53%30.30 "HgN/A
7:50 pm46 °FCool.7 mph50%30.30 "HgN/A
7:20 pm48 °FCool.7 mph50%30.30 "HgN/A
6:50 pm50 °FCool.9 mph47%30.30 "HgN/A
6:20 pm52 °FCool.9 mph44%30.30 "HgN/A
5:50 pm52 °FCool.8 mph47%30.30 "HgN/A
5:20 pm54 °FCool.6 mph41%30.30 "HgN/A
4:50 pm54 °FCool.1 mph35%30.30 "HgN/A
4:20 pm54 °FCool.6 mph35%30.33 "HgN/A
3:50 pm54 °FCool.5 mph35%30.33 "HgN/A
3:20 pm54 °FCool.5 mph35%30.36 "HgN/A
2:50 pm52 °FCool.5 mph41%30.36 "HgN/A
2:20 pm52 °FCool.5 mph41%30.36 "HgN/A
1:50 pm52 °FPassing clouds.3 mph44%30.36 "HgN/A
1:20 pm52 °FPassing clouds.7 mph44%30.39 "HgN/A
12:50 pm52 °FCool.5 mph44%30.39 "HgN/A
12:20 pm50 °FCool.3 mph43%30.39 "HgN/A
11:50 am48 °FCool.6 mph46%30.39 "HgN/A
11:20 am46 °FCool.5 mph50%30.39 "HgN/A
10:50 am48 °FCool.5 mph50%30.42 "HgN/A
10:20 am46 °FCool.2 mph57%30.42 "HgN/A
9:50 am46 °FCool.3 mph57%30.42 "HgN/A
9:20 am45 °FQuite cool.3 mph61%30.42 "HgN/A
8:50 am43 °FQuite cool.3 mph66%30.42 "HgN/A
8:20 am41 °FQuite cool.5 mph76%30.42 "HgN/A
7:50 am37 °FChilly.5 mph81%30.39 "HgN/A
7:20 am34 °FChilly.5 mph81%30.39 "HgN/A
6:50 am32 °FChilly.5 mph80%30.39 "HgN/A
6:20 am34 °FChilly.6 mph75%30.42 "HgN/A
5:50 am30 °FChilly.7 mph80%30.42 "HgN/A
5:20 am28 °FChilly.6 mph86%30.42 "HgN/A
4:50 am30 °FChilly.7 mph80%30.42 "HgN/A
4:20 am34 °FChilly.5 mph75%30.42 "HgN/A
3:50 am32 °FChilly.7 mph75%30.42 "HgN/A
3:20 am36 °FChilly.7 mph70%30.42 "HgN/A
2:50 am32 °FChilly.6 mph75%30.42 "HgN/A
2:20 am34 °FChilly.5 mph70%30.42 "HgN/A
Weather by CustomWeather, © 2021

See weather overview